Terminal Aerodrome Forecast
Issued by NWS Northern Indiana

Home | Current Version | Previous Version | Text Only | Print | Product List | Glossary On
Versions: 1 2 3 4 5 6 7 8 9 10 11 12 13
000
FTUS43 KIWX 241700
TAFFWA
TAF
KFWA 241735Z 2418/2518 13015G22KT P6SM BKN150
     FM250000 12012KT P6SM BKN150
     FM250800 12012KT 5SM -SHRA OVC030
     FM251000 14010KT 2SM SHRA BR OVC010
     FM251400 31016G25KT P6SM BKN015=

USA.gov is the U.S. government's official web portal to all federal, state and local government web resources and services.